createdAt,value
2022-12-01T00:01:30.871Z,8.80
2022-12-01T00:03:58.853Z,11.43
2022-12-01T00:06:28.192Z,8.27
2022-12-01T00:09:19.262Z,8.47
2022-12-01T00:11:48.544Z,10.00
2022-12-01T00:14:16.851Z,12.37
2022-12-01T00:16:45.025Z,9.07
2022-12-01T00:19:12.969Z,9.97
2022-12-01T00:21:42.421Z,9.13
2022-12-01T00:24:11.194Z,12.13
2022-12-01T00:26:39.448Z,10.13
2022-12-01T00:29:07.323Z,8.83
2022-12-01T00:31:35.540Z,9.77
2022-12-01T00:34:06.885Z,7.77
2022-12-01T00:36:39.169Z,9.33
2022-12-01T00:39:08.817Z,9.63
2022-12-01T00:41:36.631Z,7.30
2022-12-01T00:44:04.571Z,8.30
2022-12-01T00:46:32.575Z,6.90
2022-12-01T00:49:00.424Z,7.20
2022-12-01T00:51:28.392Z,7.27
2022-12-01T00:53:56.210Z,8.13
2022-12-01T00:56:25.351Z,9.23
2022-12-01T00:58:53.179Z,6.93
2022-12-01T01:01:21.261Z,6.57
2022-12-01T01:03:49.770Z,7.57
2022-12-01T01:06:17.795Z,5.67
2022-12-01T01:08:46.301Z,7.47
2022-12-01T01:11:14.147Z,6.33
2022-12-01T01:13:43.383Z,6.03
2022-12-01T01:16:14.990Z,8.00
2022-12-01T01:18:43.113Z,7.00
2022-12-01T01:21:14.200Z,6.03
2022-12-01T01:23:42.098Z,6.57
2022-12-01T01:26:14.108Z,6.27
2022-12-01T01:28:43.479Z,9.43
2022-12-01T01:31:13.745Z,6.93
2022-12-01T01:33:41.888Z,7.57
2022-12-01T01:36:10.644Z,9.27
2022-12-01T01:38:38.944Z,10.07
2022-12-01T01:41:08.184Z,6.57
2022-12-01T01:43:46.684Z,8.03
2022-12-01T01:46:17.435Z,7.60
2022-12-01T01:48:49.027Z,8.00
2022-12-01T01:51:20.371Z,7.30
2022-12-01T01:53:50.867Z,8.67
2022-12-01T01:56:19.056Z,6.47
2022-12-01T01:58:48.452Z,7.53
2022-12-01T02:01:17.073Z,6.60
2022-12-01T02:03:46.293Z,8.57
2022-12-01T02:06:14.704Z,6.80
2022-12-01T02:08:42.503Z,7.70
2022-12-01T02:11:33.127Z,7.47
2022-12-01T02:14:09.546Z,6.57
2022-12-01T02:16:45.966Z,6.70
2022-12-01T02:19:37.920Z,8.60
2022-12-01T02:22:20.078Z,10.67
2022-12-01T02:25:20.628Z,6.90
2022-12-01T02:28:22.048Z,8.27
2022-12-01T02:30:53.057Z,8.70
2022-12-01T02:33:29.072Z,6.77
2022-12-01T02:36:02.707Z,9.33
2022-12-01T02:38:34.447Z,9.20
2022-12-01T02:41:10.347Z,7.07
2022-12-01T02:43:46.727Z,7.27
2022-12-01T02:46:21.646Z,8.20
2022-12-01T02:48:52.620Z,9.13
2022-12-01T02:51:23.928Z,7.90
2022-12-01T02:53:52.463Z,7.50
2022-12-01T02:56:24.308Z,7.03
2022-12-01T02:58:52.732Z,8.67
2022-12-01T03:01:41.330Z,10.23
2022-12-01T03:04:46.316Z,8.77
2022-12-01T03:07:27.803Z,7.27
2022-12-01T03:10:04.925Z,7.07
2022-12-01T03:12:38.899Z,8.40
2022-12-01T03:15:10.680Z,7.57
2022-12-01T03:17:46.258Z,7.60
2022-12-01T03:20:19.848Z,9.23
2022-12-01T03:22:53.888Z,9.33
2022-12-01T03:25:26.241Z,8.37
2022-12-01T03:28:20.207Z,9.33
2022-12-01T03:30:46.308Z,8.73
2022-12-01T03:33:22.847Z,9.83
2022-12-01T03:35:55.212Z,7.83
2022-12-01T03:38:25.898Z,10.70
2022-12-01T03:40:59.038Z,10.57
2022-12-01T03:43:31.712Z,8.80
2022-12-01T03:46:05.708Z,8.47
2022-12-01T03:48:35.573Z,9.67
2022-12-01T03:51:10.808Z,9.57
2022-12-01T03:53:48.162Z,9.67
2022-12-01T03:56:20.845Z,10.40
2022-12-01T03:58:52.173Z,11.60
2022-12-01T04:01:22.285Z,8.37
2022-12-01T04:03:51.589Z,10.33
2022-12-01T04:06:19.464Z,9.17
2022-12-01T04:08:47.313Z,10.27
2022-12-01T04:11:33.107Z,8.87
2022-12-01T04:14:01.031Z,11.10
2022-12-01T04:16:29.116Z,9.50
2022-12-01T04:18:58.503Z,9.60
2022-12-01T04:21:26.325Z,11.63
2022-12-01T04:24:10.893Z,12.03
2022-12-01T04:26:39.421Z,10.13
2022-12-01T04:29:10.869Z,11.07
2022-12-01T04:31:39.288Z,9.70
2022-12-01T04:34:09.035Z,10.73
2022-12-01T04:36:36.869Z,11.37
2022-12-01T04:39:05.224Z,11.77
2022-12-01T04:41:33.177Z,11.27
2022-12-01T04:44:01.013Z,14.50
2022-12-01T04:46:28.966Z,11.47
2022-12-01T04:48:56.875Z,12.03
2022-12-01T04:51:26.122Z,10.73
2022-12-01T04:53:54.020Z,11.27
2022-12-01T04:56:21.940Z,11.43
2022-12-01T04:58:49.799Z,12.53
2022-12-01T05:01:19.302Z,13.83
2022-12-01T05:03:49.383Z,11.20
2022-12-01T05:06:19.536Z,13.23
2022-12-01T05:08:49.203Z,11.57
2022-12-01T05:11:18.023Z,10.47
2022-12-01T05:13:47.520Z,10.97
2022-12-01T05:16:17.386Z,12.37
2022-12-01T05:18:49.415Z,13.67
2022-12-01T05:24:40.009Z,12.67
2022-12-01T06:23:01.093Z,18.13
2022-12-01T06:28:36.948Z,17.33
2022-12-01T06:31:06.715Z,24.53
2022-12-01T07:55:03.456Z,18.83
2022-12-01T07:57:32.060Z,21.70
2022-12-01T08:00:00.977Z,18.50
2022-12-01T08:06:00.980Z,19.90
2022-12-01T09:56:56.015Z,14.13
2022-12-01T10:46:31.530Z,6.23
2022-12-01T10:49:12.047Z,6.60
2022-12-01T10:51:57.251Z,8.60
2022-12-01T10:54:34.301Z,7.60
2022-12-01T10:57:04.607Z,11.33
2022-12-01T10:59:39.327Z,7.13
2022-12-01T11:02:24.511Z,9.03
2022-12-01T11:05:01.373Z,8.97
2022-12-01T11:07:44.684Z,9.07
2022-12-01T11:10:22.190Z,7.73
2022-12-01T11:13:01.046Z,8.53
2022-12-01T11:15:34.991Z,10.80
2022-12-01T11:18:11.506Z,8.43
2022-12-01T11:20:42.409Z,7.90
2022-12-01T11:23:30.258Z,7.50
2022-12-01T11:26:11.543Z,6.77
2022-12-01T11:28:53.552Z,11.00
2022-12-01T11:31:27.231Z,8.07
2022-12-01T11:33:58.868Z,8.50
2022-12-01T11:36:40.464Z,9.07
2022-12-01T11:39:27.361Z,10.20
2022-12-01T11:42:03.602Z,9.50
2022-12-01T11:44:50.723Z,10.67
2022-12-01T11:47:26.859Z,10.37
2022-12-01T11:50:02.704Z,10.80
2022-12-01T11:52:44.412Z,10.60
2022-12-01T11:55:24.580Z,11.40
2022-12-01T11:58:00.753Z,11.10
2022-12-01T12:00:32.841Z,11.37
2022-12-01T12:03:26.476Z,10.57
2022-12-01T12:06:39.356Z,10.50
2022-12-01T12:09:27.317Z,11.40
2022-12-01T12:12:08.361Z,14.50
2022-12-01T12:14:58.641Z,13.63
2022-12-01T12:17:53.484Z,12.63
2022-12-01T12:20:53.435Z,10.80
2022-12-01T12:23:51.651Z,13.40
2022-12-01T12:26:27.513Z,11.83
2022-12-01T12:29:15.109Z,12.63
2022-12-01T12:32:00.789Z,14.87
2022-12-01T12:34:50.462Z,14.83
2022-12-01T12:37:26.412Z,16.77
2022-12-01T12:40:27.813Z,15.50
2022-12-01T12:43:08.877Z,17.20
2022-12-01T12:45:56.139Z,16.57
2022-12-01T12:49:11.711Z,15.77
2022-12-01T12:51:41.243Z,17.77
2022-12-01T12:54:23.191Z,19.97
2022-12-01T12:57:05.065Z,23.37
2022-12-01T12:59:51.052Z,21.87
2022-12-01T13:02:27.990Z,22.43
2022-12-01T13:05:03.829Z,20.27
2022-12-01T13:07:38.820Z,21.20
2022-12-01T13:10:18.286Z,23.07
2022-12-01T13:12:56.171Z,22.23
2022-12-01T13:15:28.200Z,25.80
2022-12-01T13:18:05.058Z,23.90
2022-12-01T13:20:37.833Z,27.93
2022-12-01T13:23:10.076Z,24.53
2022-12-01T13:25:41.442Z,27.07
2022-12-01T13:28:19.885Z,30.83
2022-12-01T13:31:01.774Z,27.47
2022-12-01T13:33:31.671Z,24.40
2022-12-01T13:36:38.212Z,32.77
2022-12-01T13:39:04.040Z,27.27
2022-12-01T13:41:39.481Z,27.77
2022-12-01T13:44:22.057Z,28.47
2022-12-01T13:46:54.043Z,29.07
2022-12-01T13:49:47.629Z,27.87
2022-12-01T13:52:28.787Z,29.10
2022-12-01T13:55:24.218Z,26.73
2022-12-01T13:58:26.323Z,30.07
2022-12-01T14:01:49.602Z,33.47
2022-12-01T14:04:35.786Z,27.93
2022-12-01T14:07:39.758Z,25.20
2022-12-01T14:10:31.819Z,29.43
2022-12-01T14:13:07.257Z,27.27
2022-12-01T14:15:42.724Z,28.70
2022-12-01T14:18:34.906Z,27.57
2022-12-01T14:21:19.524Z,27.07
2022-12-01T14:24:08.847Z,29.70
2022-12-01T14:26:45.448Z,26.27
2022-12-01T14:29:29.613Z,28.97
2022-12-01T14:32:24.995Z,35.90
2022-12-01T14:35:01.101Z,27.07
2022-12-01T14:37:38.350Z,30.67
2022-12-01T14:40:14.271Z,27.77
2022-12-01T14:43:03.736Z,28.20
2022-12-01T14:45:36.634Z,27.70
2022-12-01T14:48:06.717Z,27.40
2022-12-01T14:50:46.206Z,31.77
2022-12-01T14:53:24.643Z,25.50
2022-12-01T14:55:57.616Z,30.67
2022-12-01T14:58:29.715Z,29.80
2022-12-01T15:01:07.514Z,29.87
2022-12-01T15:03:39.516Z,27.00
2022-12-01T15:06:09.846Z,28.23
2022-12-01T15:08:45.777Z,26.63
2022-12-01T15:11:25.579Z,28.13
2022-12-01T15:13:55.750Z,27.80
2022-12-01T15:16:25.754Z,29.40
2022-12-01T15:18:54.301Z,31.27
2022-12-01T15:21:27.124Z,33.60
2022-12-01T15:24:00.786Z,30.33
2022-12-01T15:26:31.990Z,32.03
2022-12-01T15:29:17.340Z,28.17
2022-12-01T15:31:47.618Z,28.23
2022-12-01T15:34:20.724Z,28.40
2022-12-01T15:36:51.368Z,24.40
2022-12-01T15:39:21.456Z,27.83
2022-12-01T15:41:53.945Z,27.47
2022-12-01T15:44:27.153Z,31.47
2022-12-01T15:46:55.255Z,32.97
2022-12-01T15:49:29.560Z,32.60
2022-12-01T15:52:08.393Z,33.07
2022-12-01T15:54:37.721Z,34.30
2022-12-01T15:57:06.801Z,33.37
2022-12-01T15:59:39.084Z,34.50
2022-12-01T16:02:16.211Z,33.03
2022-12-01T16:04:44.764Z,33.20
2022-12-01T16:07:15.243Z,32.87
2022-12-01T16:09:55.887Z,34.80
2022-12-01T16:12:25.942Z,32.70
2022-12-01T16:15:13.080Z,34.80
2022-12-01T16:17:46.277Z,32.57
2022-12-01T16:20:25.701Z,33.60
2022-12-01T16:22:58.747Z,32.40
2022-12-01T16:25:35.360Z,33.50
2022-12-01T16:28:04.238Z,32.40
2022-12-01T16:30:37.783Z,31.50
2022-12-01T16:33:08.319Z,32.47
2022-12-01T16:35:36.350Z,34.60
2022-12-01T16:38:15.825Z,32.07
2022-12-01T16:41:07.790Z,31.53
2022-12-01T16:43:36.422Z,32.67
2022-12-01T16:46:07.900Z,35.53
2022-12-01T16:48:44.982Z,33.97
2022-12-01T16:51:17.278Z,32.23
2022-12-01T16:53:53.527Z,34.90
2022-12-01T16:56:23.362Z,33.90
2022-12-01T16:58:51.296Z,34.17
2022-12-01T17:01:19.481Z,32.67
2022-12-01T17:03:47.390Z,33.10
2022-12-01T17:06:18.845Z,32.60
2022-12-01T17:08:46.780Z,33.00
2022-12-01T17:11:16.049Z,36.43
2022-12-01T17:13:44.098Z,31.20
2022-12-01T17:16:18.740Z,30.73
2022-12-01T17:18:46.887Z,31.87
2022-12-01T17:21:15.397Z,31.57
2022-12-01T17:23:43.272Z,35.20
2022-12-01T17:26:13.220Z,35.67
2022-12-01T17:28:42.837Z,35.37
2022-12-01T17:31:11.281Z,35.90
2022-12-01T17:33:39.522Z,30.67
2022-12-01T17:36:11.568Z,32.40
2022-12-01T17:38:41.887Z,30.63
2022-12-01T17:41:12.209Z,33.57
2022-12-01T17:43:42.492Z,32.90
2022-12-01T17:46:13.128Z,33.13
2022-12-01T17:48:42.986Z,31.00
2022-12-01T17:51:12.386Z,32.47
2022-12-01T17:53:40.558Z,30.67
2022-12-01T17:56:09.949Z,29.33
2022-12-01T17:58:38.604Z,32.33
2022-12-01T18:01:13.189Z,31.10
2022-12-01T18:03:41.798Z,32.20
2022-12-01T18:06:10.440Z,31.17
2022-12-01T18:08:39.627Z,33.83
2022-12-01T18:11:10.277Z,30.80
2022-12-01T18:13:39.355Z,30.73
2022-12-01T18:16:11.100Z,29.37
2022-12-01T18:18:40.520Z,31.73
2022-12-01T18:21:09.651Z,33.20
2022-12-01T18:23:38.082Z,31.90
2022-12-01T18:26:12.143Z,31.83
2022-12-01T18:28:43.406Z,33.03
2022-12-01T18:31:16.443Z,33.40
2022-12-01T18:33:46.048Z,32.63
2022-12-01T18:36:17.991Z,29.87
2022-12-01T18:38:54.443Z,35.13
2022-12-01T18:41:22.410Z,34.87
2022-12-01T18:43:50.604Z,33.53
2022-12-01T18:46:21.121Z,31.50
2022-12-01T18:48:53.257Z,31.77
2022-12-01T18:51:22.217Z,34.30
2022-12-01T18:53:54.812Z,33.73
2022-12-01T18:56:22.842Z,38.47
2022-12-01T18:58:57.242Z,36.07
2022-12-01T19:01:31.856Z,35.97
2022-12-01T19:04:00.684Z,33.67
2022-12-01T19:06:30.766Z,33.97
2022-12-01T19:09:01.413Z,36.53
2022-12-01T19:11:30.054Z,35.23
2022-12-01T19:13:58.947Z,33.73
2022-12-01T19:16:31.041Z,37.83
2022-12-01T19:18:59.099Z,31.13
2022-12-01T19:21:27.006Z,36.97
2022-12-01T19:23:55.193Z,34.60
2022-12-01T19:26:25.482Z,35.43
2022-12-01T19:28:53.756Z,35.53
2022-12-01T19:31:23.851Z,36.37
2022-12-01T19:33:54.692Z,34.13
2022-12-01T19:36:25.066Z,31.67
2022-12-01T19:38:53.926Z,35.83
2022-12-01T19:41:25.303Z,36.10
2022-12-01T19:43:56.209Z,32.80
2022-12-01T19:46:27.102Z,36.07
2022-12-01T19:49:00.117Z,32.90
2022-12-01T19:51:31.224Z,31.83
2022-12-01T19:53:59.695Z,31.90
2022-12-01T19:56:28.951Z,29.83
2022-12-01T19:58:58.502Z,32.40
2022-12-01T20:01:27.379Z,29.83
2022-12-01T20:03:56.743Z,28.97
2022-12-01T20:06:26.819Z,32.97
2022-12-01T20:08:56.569Z,29.23
2022-12-01T20:11:24.571Z,32.53
2022-12-01T20:13:53.997Z,24.10
2022-12-01T20:16:24.193Z,23.00
2022-12-01T20:18:52.773Z,25.33
2022-12-01T20:21:24.267Z,27.53
2022-12-01T20:23:55.244Z,22.07
2022-12-01T20:26:28.961Z,25.80
2022-12-01T20:29:01.457Z,23.70
2022-12-01T20:31:31.650Z,24.70
2022-12-01T20:34:01.714Z,23.47
2022-12-01T20:36:31.850Z,26.20
2022-12-01T20:39:00.713Z,25.87
2022-12-01T20:41:28.688Z,26.03
2022-12-01T20:43:56.657Z,26.07
2022-12-01T20:46:24.746Z,23.77
2022-12-01T20:48:53.014Z,23.57
2022-12-01T20:51:20.929Z,25.77
2022-12-01T20:54:19.659Z,24.37
2022-12-01T20:56:39.386Z,25.07
2022-12-01T20:59:07.889Z,24.57
2022-12-01T21:01:36.313Z,24.23
2022-12-01T21:04:06.129Z,23.40
2022-12-01T21:06:34.003Z,25.73
2022-12-01T21:09:04.091Z,22.67
2022-12-01T21:11:53.611Z,23.90
2022-12-01T21:14:25.794Z,24.53
2022-12-01T21:16:57.843Z,23.33
2022-12-01T21:19:31.890Z,28.20
2022-12-01T21:22:00.208Z,25.50
2022-12-01T21:24:36.772Z,25.13
2022-12-01T21:27:14.044Z,26.07
2022-12-01T21:29:45.025Z,22.53
2022-12-01T21:32:15.366Z,27.37
2022-12-01T21:34:44.806Z,25.57
2022-12-01T21:37:24.327Z,23.00
2022-12-01T21:39:58.370Z,23.40
2022-12-01T21:42:28.778Z,24.17
2022-12-01T21:44:57.745Z,24.90
2022-12-01T21:47:28.597Z,24.83
2022-12-01T21:49:58.839Z,24.67
2022-12-01T21:52:31.825Z,24.17
2022-12-01T21:55:31.209Z,25.20
2022-12-01T21:57:59.210Z,24.43
2022-12-01T22:00:30.050Z,27.67
2022-12-01T22:03:32.402Z,24.43
2022-12-01T22:06:30.137Z,23.77
2022-12-01T22:09:02.050Z,24.13
2022-12-01T22:11:32.195Z,22.40
2022-12-01T22:14:13.824Z,22.63
2022-12-01T22:16:43.955Z,22.93
2022-12-01T22:19:26.018Z,21.83
2022-12-01T22:22:00.600Z,22.90
2022-12-01T22:24:33.858Z,23.50
2022-12-01T22:27:22.388Z,22.73
2022-12-01T22:29:53.303Z,22.83
2022-12-01T22:32:45.468Z,22.73
2022-12-01T22:35:34.364Z,23.43
2022-12-01T22:38:29.881Z,23.03
2022-12-01T22:41:00.087Z,23.40
2022-12-01T22:43:33.494Z,23.70
2022-12-01T22:46:30.815Z,23.33
2022-12-01T22:49:00.404Z,22.13
2022-12-01T22:51:42.400Z,21.83
2022-12-01T22:54:35.805Z,19.33
2022-12-01T22:57:12.798Z,22.87
2022-12-01T22:59:44.446Z,20.33
2022-12-01T23:02:21.099Z,20.77
2022-12-01T23:04:52.334Z,21.90
2022-12-01T23:07:33.489Z,20.53
2022-12-01T23:22:40.126Z,20.07
2022-12-01T23:25:15.025Z,20.50
2022-12-01T23:27:43.855Z,20.10
2022-12-01T23:30:13.909Z,19.93
2022-12-01T23:32:42.416Z,19.57
2022-12-01T23:35:16.675Z,21.17
2022-12-01T23:37:48.769Z,21.40
2022-12-01T23:40:30.952Z,19.67
2022-12-01T23:43:00.462Z,19.03
2022-12-01T23:45:29.129Z,20.37
2022-12-01T23:47:57.884Z,20.30
2022-12-01T23:50:27.870Z,18.70
2022-12-01T23:52:57.608Z,18.37
2022-12-01T23:55:29.447Z,20.97
2022-12-01T23:57:59.302Z,19.37
